createdAt,value
2019-04-01T00:01:07.700Z,4.55
2019-04-01T00:06:12.117Z,4.48
2019-04-01T00:11:16.334Z,4.44
2019-04-01T00:16:20.553Z,4.39
2019-04-01T00:21:24.767Z,4.41
2019-04-01T00:26:28.980Z,4.37
2019-04-01T00:31:33.200Z,4.38
2019-04-01T00:36:37.419Z,4.28
2019-04-01T00:41:55.648Z,4.28
2019-04-01T00:46:59.867Z,4.30
2019-04-01T00:52:04.109Z,4.29
2019-04-01T00:57:08.319Z,4.25
2019-04-01T01:02:12.526Z,4.20
2019-04-01T01:07:16.779Z,4.14
2019-04-01T01:12:20.997Z,4.09
2019-04-01T01:17:25.205Z,4.08
2019-04-01T01:22:29.413Z,4.05
2019-04-01T01:27:33.642Z,3.99
2019-04-01T01:32:37.892Z,3.93
2019-04-01T01:37:42.122Z,3.92
2019-04-01T01:42:46.335Z,3.90
2019-04-01T01:47:50.557Z,3.80
2019-04-01T01:52:54.823Z,3.81
2019-04-01T01:57:59.057Z,3.69
2019-04-01T02:03:03.277Z,3.69
2019-04-01T02:08:07.498Z,3.68
2019-04-01T02:13:11.724Z,3.63
2019-04-01T02:18:15.949Z,3.63
2019-04-01T02:23:20.179Z,3.53
2019-04-01T02:28:24.399Z,3.57
2019-04-01T02:33:28.623Z,3.57
2019-04-01T02:38:32.870Z,3.61
2019-04-01T02:43:37.148Z,3.56
2019-04-01T02:48:41.392Z,3.57
2019-04-01T02:53:45.638Z,3.54
2019-04-01T02:58:50.173Z,3.49
2019-04-01T03:03:54.474Z,3.46
2019-04-01T03:08:58.940Z,3.47
2019-04-01T03:14:03.202Z,3.48
2019-04-01T03:19:07.450Z,3.42
2019-04-01T03:24:11.846Z,3.38
2019-04-01T03:29:16.396Z,3.34
2019-04-01T03:34:21.170Z,3.32
2019-04-01T03:39:25.513Z,3.30
2019-04-01T03:44:29.975Z,3.22
2019-04-01T03:49:34.864Z,3.23
2019-04-01T03:54:39.524Z,3.15
2019-04-01T03:59:43.774Z,3.12
2019-04-01T04:04:48.039Z,3.06
2019-04-01T04:09:59.502Z,3.00
2019-04-01T04:15:03.761Z,2.95
2019-04-01T04:20:07.991Z,2.95
2019-04-01T04:25:12.502Z,2.90
2019-04-01T04:30:19.738Z,2.86
2019-04-01T04:35:23.995Z,2.81
2019-04-01T04:40:28.214Z,2.73
2019-04-01T04:45:32.443Z,2.69
2019-04-01T04:50:36.677Z,2.69
2019-04-01T04:55:40.907Z,2.70
2019-04-01T05:00:45.140Z,2.68
2019-04-01T05:05:49.565Z,2.72
2019-04-01T05:10:53.882Z,2.74
2019-04-01T05:15:58.112Z,2.79
2019-04-01T05:21:03.249Z,2.82
2019-04-01T05:26:08.591Z,2.88
2019-04-01T05:31:14.964Z,2.94
2019-04-01T05:36:20.462Z,3.04
2019-04-01T05:41:24.694Z,3.13
2019-04-01T05:46:28.929Z,3.21
2019-04-01T05:51:33.151Z,3.36
2019-04-01T05:56:37.371Z,3.50
2019-04-01T06:01:44.350Z,3.63
2019-04-01T06:06:49.104Z,3.90
2019-04-01T06:11:53.412Z,4.06
2019-04-01T06:16:58.187Z,4.22
2019-04-01T06:22:02.822Z,4.38
2019-04-01T06:27:07.096Z,4.56
2019-04-01T06:32:11.384Z,4.73
2019-04-01T06:37:15.780Z,5.00
2019-04-01T06:42:20.785Z,5.10
2019-04-01T06:47:25.028Z,5.38
2019-04-01T06:52:29.465Z,5.63
2019-04-01T06:57:33.835Z,5.81
2019-04-01T07:02:38.090Z,5.94
2019-04-01T07:07:42.332Z,6.13
2019-04-01T07:12:47.077Z,6.34
2019-04-01T07:17:51.334Z,6.58
2019-04-01T07:22:55.567Z,6.68
2019-04-01T07:27:59.842Z,6.88
2019-04-01T07:33:04.195Z,6.97
2019-04-01T07:38:08.418Z,6.85
2019-04-01T07:43:15.322Z,6.86
2019-04-01T07:48:19.669Z,7.01
2019-04-01T07:53:24.457Z,7.09
2019-04-01T07:58:28.803Z,7.25
2019-04-01T08:03:33.058Z,7.54
2019-04-01T08:08:37.544Z,7.78
2019-04-01T08:13:42.822Z,7.94
2019-04-01T08:18:47.065Z,8.06
2019-04-01T08:23:51.316Z,8.10
2019-04-01T08:28:55.560Z,8.17
2019-04-01T08:33:59.784Z,8.19
2019-04-01T08:39:06.743Z,8.32
2019-04-01T08:44:11.106Z,8.34
2019-04-01T08:49:15.670Z,8.38
2019-04-01T08:54:19.866Z,8.25
2019-04-01T08:59:24.242Z,7.99
2019-04-01T09:04:28.567Z,8.20
2019-04-01T09:09:33.511Z,8.02
2019-04-01T09:14:38.278Z,8.30
2019-04-01T09:19:42.508Z,8.41
2019-04-01T09:24:46.737Z,8.55
2019-04-01T09:29:50.986Z,8.57
2019-04-01T09:34:55.201Z,8.45
2019-04-01T09:39:59.420Z,8.56
2019-04-01T09:45:03.650Z,8.47
2019-04-01T09:50:08.307Z,8.55
2019-04-01T09:55:12.554Z,8.68
2019-04-01T10:00:17.070Z,8.67
2019-04-01T10:05:21.288Z,8.68
2019-04-01T10:10:25.495Z,8.94
2019-04-01T10:15:29.707Z,9.49
2019-04-01T10:20:33.917Z,9.55
2019-04-01T10:25:38.135Z,10.17
2019-04-01T10:30:42.394Z,10.45
2019-04-01T10:35:46.637Z,11.02
2019-04-01T10:40:51.070Z,11.85
2019-04-01T10:45:55.317Z,12.34
2019-04-01T10:50:59.584Z,13.22
2019-04-01T10:56:03.843Z,14.23
2019-04-01T11:01:08.058Z,14.66
2019-04-01T11:06:12.445Z,15.20
2019-04-01T11:11:16.645Z,15.85
2019-04-01T11:16:20.973Z,17.15
2019-04-01T11:21:25.262Z,17.41
2019-04-01T11:26:29.497Z,17.19
2019-04-01T11:31:33.743Z,18.13
2019-04-01T11:36:37.993Z,18.43
2019-04-01T11:41:42.286Z,17.79
2019-04-01T11:46:46.581Z,19.19
2019-04-01T11:51:50.813Z,19.24
2019-04-01T11:56:55.074Z,20.08
2019-04-01T12:01:59.308Z,20.44
2019-04-01T12:07:03.554Z,21.45
2019-04-01T12:12:22.323Z,21.71
2019-04-01T12:17:13.754Z,20.88
2019-04-01T12:22:19.840Z,20.88
2019-04-01T12:27:23.947Z,20.92
2019-04-01T12:32:28.206Z,21.67
2019-04-01T12:37:32.453Z,21.67
2019-04-01T12:42:36.687Z,21.94
2019-04-01T12:47:43.135Z,21.88
2019-04-01T12:52:47.084Z,22.51
2019-04-01T12:57:51.616Z,21.61
2019-04-01T13:02:55.852Z,22.41
2019-04-01T13:08:00.110Z,22.95
2019-04-01T13:13:04.336Z,22.57
2019-04-01T13:18:08.712Z,23.07
2019-04-01T13:23:12.933Z,22.33
2019-04-01T13:28:17.194Z,22.05
2019-04-01T13:33:21.394Z,23.08
2019-04-01T13:38:25.705Z,22.84
2019-04-01T13:43:30.003Z,22.73
2019-04-01T13:48:34.229Z,21.90
2019-04-01T13:53:38.475Z,21.88
2019-04-01T13:58:42.738Z,21.44
2019-04-01T14:03:47.048Z,21.24
2019-04-01T14:08:51.531Z,21.76
2019-04-01T14:13:55.804Z,22.16
2019-04-01T14:19:00.021Z,21.70
2019-04-01T14:24:04.251Z,22.01
2019-04-01T14:29:08.492Z,21.76
2019-04-01T14:34:13.860Z,22.46
2019-04-01T14:39:18.689Z,21.79
2019-04-01T14:44:22.945Z,20.24
2019-04-01T14:49:27.165Z,20.23
2019-04-01T14:54:31.565Z,20.57
2019-04-01T14:59:35.816Z,19.03
2019-04-01T15:04:40.076Z,17.76
2019-04-01T15:09:44.361Z,16.51
2019-04-01T15:14:49.590Z,15.88
2019-04-01T15:19:53.828Z,15.58
2019-04-01T15:24:58.815Z,15.35
2019-04-01T15:30:03.202Z,15.04
2019-04-01T15:35:07.734Z,14.19
2019-04-01T15:40:12.166Z,14.12
2019-04-01T15:45:16.417Z,14.16
2019-04-01T15:50:28.456Z,13.93
2019-04-01T15:55:26.701Z,14.03
2019-04-01T16:00:32.028Z,13.85
2019-04-01T16:05:36.574Z,13.62
2019-04-01T16:10:43.956Z,13.65
2019-04-01T16:15:48.221Z,13.38
2019-04-01T16:20:52.464Z,13.26
2019-04-01T16:25:56.712Z,13.20
2019-04-01T16:31:00.996Z,13.12
2019-04-01T16:36:05.435Z,12.96
2019-04-01T16:41:09.771Z,12.86
2019-04-01T16:46:14.000Z,12.71
2019-04-01T16:51:18.276Z,12.60
2019-04-01T16:56:22.508Z,12.48
2019-04-01T17:01:26.758Z,12.37
2019-04-01T17:06:30.996Z,12.25
2019-04-01T17:11:35.247Z,12.06
2019-04-01T17:16:39.512Z,11.94
2019-04-01T17:21:43.908Z,11.94
2019-04-01T17:27:13.671Z,11.82
2019-04-01T17:32:17.953Z,11.65
2019-04-01T17:37:22.739Z,11.55
2019-04-01T17:42:27.109Z,11.35
2019-04-01T17:47:31.383Z,11.29
2019-04-01T17:52:35.646Z,11.14
2019-04-01T17:57:39.911Z,10.94
2019-04-01T18:02:44.152Z,10.82
2019-04-01T18:07:48.415Z,10.77
2019-04-01T18:12:52.706Z,10.65
2019-04-01T18:17:56.966Z,10.52
2019-04-01T18:23:01.333Z,10.49
2019-04-01T18:28:06.152Z,10.29
2019-04-01T18:33:10.420Z,10.19
2019-04-01T18:38:14.674Z,10.36
2019-04-01T18:43:19.047Z,10.29
2019-04-01T18:48:23.312Z,10.13
2019-04-01T18:53:28.635Z,10.01
2019-04-01T18:58:32.979Z,9.85
2019-04-01T19:03:38.201Z,9.71
2019-04-01T19:08:43.478Z,9.63
2019-04-01T19:13:47.862Z,9.56
2019-04-01T19:18:53.255Z,9.44
2019-04-01T19:23:57.788Z,9.33
2019-04-01T19:29:02.133Z,9.21
2019-04-01T19:34:07.395Z,9.01
2019-04-01T19:39:12.157Z,8.94
2019-04-01T19:44:16.546Z,8.93
2019-04-01T19:49:21.390Z,8.82
2019-04-01T19:54:31.134Z,8.75
2019-04-01T19:59:31.683Z,8.66
2019-04-01T20:04:35.942Z,8.60
2019-04-01T20:09:41.888Z,8.57
2019-04-01T20:14:46.168Z,8.51
2019-04-01T20:19:50.417Z,8.38
2019-04-01T20:24:54.677Z,8.35
2019-04-01T20:29:58.930Z,8.27
2019-04-01T20:35:03.174Z,8.18
2019-04-01T20:40:09.013Z,8.11
2019-04-01T20:45:13.835Z,8.04
2019-04-01T20:50:18.474Z,7.92
2019-04-01T20:55:22.733Z,7.91
2019-04-01T21:00:26.944Z,7.83
2019-04-01T21:05:31.176Z,7.75
2019-04-01T21:10:35.625Z,7.62
2019-04-01T21:15:39.937Z,7.56
2019-04-01T21:20:44.204Z,7.60
2019-04-01T21:25:48.444Z,7.49
2019-04-01T21:30:52.857Z,7.37
2019-04-01T21:35:57.496Z,7.27
2019-04-01T21:41:01.722Z,7.21
2019-04-01T21:46:05.973Z,7.12
2019-04-01T21:51:10.186Z,7.09
2019-04-01T21:56:14.423Z,6.98
2019-04-01T22:01:18.685Z,6.95
2019-04-01T22:06:22.912Z,6.87
2019-04-01T22:11:27.254Z,6.80
2019-04-01T22:16:31.499Z,6.73
2019-04-01T22:21:35.922Z,6.71
2019-04-01T22:26:40.374Z,6.59
2019-04-01T22:31:44.895Z,6.53
2019-04-01T22:36:49.347Z,6.54
2019-04-01T22:41:53.586Z,6.52
2019-04-01T22:46:57.819Z,6.37
2019-04-01T22:52:02.183Z,6.34
2019-04-01T22:57:06.419Z,6.28
2019-04-01T23:02:10.689Z,6.25
2019-04-01T23:07:14.908Z,6.20
2019-04-01T23:12:20.184Z,6.16
2019-04-01T23:17:24.463Z,6.15
2019-04-01T23:22:29.263Z,6.10
2019-04-01T23:27:33.932Z,6.07
2019-04-01T23:32:41.522Z,5.97
2019-04-01T23:37:44.666Z,5.95
2019-04-01T23:42:48.976Z,5.95
2019-04-01T23:47:53.334Z,5.90
2019-04-01T23:52:57.570Z,5.82
2019-04-01T23:58:01.842Z,5.85
